Time;durP1;ratioP1;P1;durP2;ratioP2;P2;SDS_P1;SDS_P2;PMS_P1;PMS_P2;Temp;Humidity;BMP_temperature;BMP_pressure;BME280_temperature;BME280_humidity;BME280_pressure;Samples;Min_cycle;Max_cycle;Signal;HPM_P1;HPM_P2
2021/07/03 00:00:06;;;;;;;2.80;2.50;;;;;;;18.11;72.21;99563.23;126769;1089;102948;-80
2021/07/03 00:03:14;;;;;;;3.13;2.70;;;;;;;18.09;72.39;99558.08;126690;1089;103031;-80
2021/07/03 00:06:02;;;;;;;3.87;2.80;;;;;;;18.06;72.65;99558.30;126587;1090;114503;-80
2021/07/03 00:08:50;;;;;;;3.40;2.60;;;;;;;18.04;72.89;99554.94;126680;1090;101708;-80
2021/07/03 00:11:38;;;;;;;2.93;2.47;;;;;;;18.05;73.01;99553.14;126730;1088;102965;-80
2021/07/03 00:14:26;;;;;;;3.57;3.27;;;;;;;18.04;72.94;99557.58;126722;1089;102955;-80
2021/07/03 00:17:13;;;;;;;4.13;2.80;;;;;;;18.04;73.00;99552.30;126644;1088;102892;-81
2021/07/03 00:20:04;;;;;;;3.07;2.77;;;;;;;18.03;73.21;99542.70;126631;1089;114193;-80
2021/07/03 00:22:54;;;;;;;4.00;2.67;;;;;;;18.06;73.32;99547.75;126783;1090;102848;-80
2021/07/03 00:25:43;;;;;;;2.97;2.40;;;;;;;18.07;73.54;99548.59;126578;1090;115237;-80
2021/07/03 00:28:31;;;;;;;3.90;2.80;;;;;;;18.07;73.34;99546.80;126671;1090;102892;-80
2021/07/03 00:31:19;;;;;;;3.23;2.93;;;;;;;18.04;73.50;99549.66;126534;1090;114188;-80
2021/07/03 00:34:07;;;;;;;4.23;2.97;;;;;;;18.00;72.89;99548.22;126671;1089;102967;-80
2021/07/03 00:36:55;;;;;;;3.23;2.73;;;;;;;17.98;73.54;99551.92;126612;1089;114158;-80
2021/07/03 00:39:46;;;;;;;3.20;2.90;;;;;;;17.98;73.92;99550.13;126667;1090;103001;-81
2021/07/03 00:42:34;;;;;;;3.07;2.77;;;;;;;17.97;73.75;99552.88;126716;1090;114453;-80
2021/07/03 00:45:24;;;;;;;3.33;3.03;;;;;;;17.95;73.77;99550.33;126637;1089;102676;-80
2021/07/03 00:48:12;;;;;;;3.30;3.00;;;;;;;17.94;73.84;99548.64;126504;1090;114406;-80
2021/07/03 00:51:01;;;;;;;4.00;2.80;;;;;;;17.91;74.02;99548.03;126675;1088;102908;-80
2021/07/03 00:53:49;;;;;;;3.47;2.77;;;;;;;17.90;74.39;99547.20;126742;1090;102848;-80
2021/07/03 00:56:38;;;;;;;3.20;2.80;;;;;;;17.90;74.27;99541.08;126810;1089;114568;-80
2021/07/03 00:59:25;;;;;;;;;;;;;;;17.86;74.46;99540.47;126686;1090;103004;-80
2021/07/03 01:02:16;;;;;;;3.25;2.90;;;;;;;17.89;74.44;99539.40;126774;1089;102887;-80
2021/07/03 01:05:07;;;;;;;4.00;3.20;;;;;;;17.89;74.47;99534.13;126641;1090;102873;-80
2021/07/03 01:07:55;;;;;;;3.60;2.63;;;;;;;17.85;74.42;99537.95;126539;1090;113296;-80
2021/07/03 01:10:43;;;;;;;3.33;3.03;;;;;;;17.84;74.52;99544.17;126686;1089;103013;-80
2021/07/03 01:13:40;;;;;;;4.60;4.20;;;;;;;17.86;74.85;99542.27;126559;1090;113525;-80
2021/07/03 01:16:37;;;;;;;5.30;3.40;;;;;;;17.88;74.96;99548.27;126613;1090;102837;-80
2021/07/03 01:19:25;;;;;;;3.93;2.80;;;;;;;17.92;74.96;99550.56;126464;1090;114849;-80
2021/07/03 01:22:14;;;;;;;3.60;3.03;;;;;;;17.98;74.93;99549.28;126621;1090;103017;-80
2021/07/03 01:25:04;;;;;;;3.40;3.00;;;;;;;17.97;75.35;99531.78;126559;1090;113154;-80
2021/07/03 01:28:00;;;;;;;3.97;3.57;;;;;;;17.95;75.13;99539.77;126536;1090;103027;-80
2021/07/03 01:30:50;;;;;;;3.20;2.90;;;;;;;17.93;75.19;99533.77;126554;1089;114457;-80
2021/07/03 01:33:39;;;;;;;3.27;2.50;;;;;;;17.94;75.32;99531.98;126583;1090;102933;-80
2021/07/03 01:36:27;;;;;;;3.37;2.70;;;;;;;17.92;75.28;99526.81;126484;1090;114442;-80
2021/07/03 01:39:16;;;;;;;4.03;2.90;;;;;;;17.90;75.41;99522.61;126531;1088;102896;-80
2021/07/03 01:42:06;;;;;;;2.97;2.60;;;;;;;17.90;75.46;99531.37;126539;1090;102929;-79
2021/07/03 01:44:55;;;;;;;3.00;2.80;;;;;;;17.93;75.53;99533.77;126486;1089;114013;-80
2021/07/03 01:47:49;;;;;;;3.07;2.80;;;;;;;17.92;75.62;99526.81;126557;1090;102879;-80
2021/07/03 01:50:38;;;;;;;3.90;3.30;;;;;;;17.92;75.67;99528.61;126468;1089;114169;-80
2021/07/03 01:53:27;;;;;;;3.70;3.40;;;;;;;17.92;75.83;99518.91;126644;1090;102855;-80
2021/07/03 01:56:17;;;;;;;3.77;3.30;;;;;;;17.91;75.82;99511.94;126475;1090;113164;-80
2021/07/03 01:59:06;;;;;;;3.47;3.17;;;;;;;17.91;76.01;99525.13;126689;1089;102881;-80
2021/07/03 02:02:08;;;;;;;3.70;3.40;;;;;;;17.93;76.08;99515.30;126510;1089;114452;-80
2021/07/03 02:04:57;;;;;;;5.40;3.90;;;;;;;17.88;76.17;99512.17;126690;1090;102901;-80
2021/07/03 02:07:45;;;;;;;3.60;3.30;;;;;;;17.85;76.27;99495.73;126557;1090;114329;-80
2021/07/03 02:10:34;;;;;;;3.40;3.10;;;;;;;17.84;76.63;99507.25;126720;1090;102998;-80
2021/07/03 02:13:22;;;;;;;3.53;2.70;;;;;;;17.82;76.34;99517.91;126637;1089;114127;-80
2021/07/03 02:16:10;;;;;;;3.03;2.83;;;;;;;17.84;76.70;99518.64;126756;1090;102883;-80
2021/07/03 02:18:59;;;;;;;4.00;3.30;;;;;;;17.84;76.58;99513.36;126625;1090;114408;-79
2021/07/03 02:21:51;;;;;;;3.73;2.97;;;;;;;17.85;76.56;99517.69;126649;1088;102902;-79
2021/07/03 02:24:45;;;;;;;3.30;3.00;;;;;;;17.84;76.48;99510.73;126480;1089;114477;-79
2021/07/03 02:27:33;;;;;;;3.40;2.80;;;;;;;17.84;76.56;99521.28;126765;1089;102945;-79
2021/07/03 02:30:27;;;;;;;3.50;3.20;;;;;;;17.88;76.89;99516.61;126625;1090;102852;-80
2021/07/03 02:33:15;;;;;;;4.93;3.27;;;;;;;17.86;76.75;99516.73;126555;1089;113081;-79
2021/07/03 02:36:04;;;;;;;4.30;2.87;;;;;;;17.85;76.94;99501.86;126605;1090;102909;-79
2021/07/03 02:38:53;;;;;;;3.10;2.80;;;;;;;17.84;77.08;99508.09;126498;1090;114566;-79
2021/07/03 02:41:48;;;;;;;2.67;2.33;;;;;;;17.85;77.04;99511.56;126634;1089;102757;-79
2021/07/03 02:44:37;;;;;;;2.50;2.30;;;;;;;17.83;77.04;99503.77;126486;1090;114105;-79
2021/07/03 02:47:25;;;;;;;3.80;2.70;;;;;;;17.82;77.37;99507.36;126762;1089;102889;-79
2021/07/03 02:50:16;;;;;;;2.70;2.50;;;;;;;17.80;77.29;99509.27;126489;1089;114204;-78
2021/07/03 02:53:06;;;;;;;2.90;2.47;;;;;;;17.80;77.36;99506.64;126648;1090;101579;-79
2021/07/03 02:55:53;;;;;;;3.23;2.93;;;;;;;17.78;77.42;99508.55;126488;1089;114132;-79
2021/07/03 02:58:43;;;;;;;3.27;2.97;;;;;;;17.79;77.46;99520.78;126736;1090;102995;-79
2021/07/03 03:01:33;;;;;;;3.63;3.23;;;;;;;17.78;76.96;99516.46;126630;1090;114284;-79
2021/07/03 03:04:22;;;;;;;4.17;3.70;;;;;;;17.81;77.88;99510.95;126607;1089;103011;-79
2021/07/03 03:07:11;;;;;;;3.43;3.13;;;;;;;17.79;77.55;99518.98;126499;1090;113750;-79
2021/07/03 03:10:00;;;;;;;4.77;4.17;;;;;;;17.75;77.84;99516.66;126563;1090;102881;-79
2021/07/03 03:12:48;;;;;;;4.80;4.10;;;;;;;17.72;77.60;99516.89;126592;1089;102856;-79
2021/07/03 03:15:40;;;;;;;4.60;4.17;;;;;;;17.69;77.87;99517.96;126589;1090;102890;-80
2021/07/03 03:18:28;;;;;;;4.67;4.27;;;;;;;17.73;78.00;99518.57;126513;1090;103007;-79
2021/07/03 03:21:17;;;;;;;4.90;4.40;;;;;;;17.76;77.82;99516.55;126490;1089;114188;-79
2021/07/03 03:24:05;;;;;;;6.30;5.10;;;;;;;17.78;78.02;99517.30;126640;1090;102863;-79
2021/07/03 03:26:53;;;;;;;6.07;5.50;;;;;;;17.79;78.01;99518.98;126554;1090;114300;-79
2021/07/03 03:29:42;;;;;;;6.63;4.77;;;;;;;17.80;77.84;99525.94;126620;1088;102869;-80
2021/07/03 03:32:31;;;;;;;6.37;4.87;;;;;;;17.79;78.01;99513.70;126523;1090;114305;-79
2021/07/03 03:35:19;;;;;;;5.45;4.90;;;;;;;17.82;77.97;99523.19;126629;1088;103019;-79
2021/07/03 03:38:08;;;;;;;6.20;5.60;;;;;;;17.87;78.10;99520.20;126536;1089;114588;-78
2021/07/03 03:40:56;;;;;;;6.90;5.90;;;;;;;17.89;78.10;99520.93;126632;1090;102998;-79
2021/07/03 03:43:44;;;;;;;6.70;5.57;;;;;;;17.91;78.04;99517.22;126584;1089;114438;-79
2021/07/03 03:46:33;;;;;;;7.40;5.90;;;;;;;17.92;77.71;99515.42;126613;1090;102991;-79
2021/07/03 03:49:22;;;;;;;8.07;5.03;;;;;;;17.92;78.08;99518.91;126522;1090;114323;-80
2021/07/03 03:52:11;;;;;;;7.10;5.80;;;;;;;17.92;78.14;99525.97;126626;1088;102941;-79
2021/07/03 03:54:59;;;;;;;6.10;5.47;;;;;;;17.95;78.12;99525.74;126628;1089;102839;-79
2021/07/03 03:57:47;;;;;;;7.13;6.43;;;;;;;17.97;78.32;99522.06;126660;1090;113973;-79
2021/07/03 04:00:38;;;;;;;5.80;5.20;;;;;;;17.96;78.21;99530.94;126556;1090;103214;-79
2021/07/03 04:03:26;;;;;;;5.63;4.90;;;;;;;17.98;78.56;99531.66;126521;1088;114160;-78
2021/07/03 04:06:15;;;;;;;6.17;5.20;;;;;;;18.00;78.24;99523.63;126712;1089;102860;-79
2021/07/03 04:09:03;;;;;;;6.03;5.53;;;;;;;18.02;78.27;99525.20;126661;1089;114148;-79
2021/07/03 04:11:55;;;;;;;7.10;6.40;;;;;;;18.04;78.33;99533.83;126653;1089;102869;-79
2021/07/03 04:14:47;;;;;;;6.63;5.40;;;;;;;18.05;78.19;99532.88;126524;1089;114754;-79
2021/07/03 04:17:35;;;;;;;4.93;4.43;;;;;;;18.07;78.46;99530.13;126604;1090;103119;-79
2021/07/03 04:20:22;;;;;;;4.60;4.20;;;;;;;18.09;78.07;99530.84;126585;1089;114242;-79
2021/07/03 04:23:10;;;;;;;5.10;4.60;;;;;;;18.11;78.26;99529.77;126659;1090;102853;-79
2021/07/03 04:25:58;;;;;;;5.03;4.40;;;;;;;18.09;78.22;99536.96;126562;1088;114295;-79
2021/07/03 04:28:48;;;;;;;4.90;4.50;;;;;;;18.09;78.31;99531.69;126794;1088;102858;-79
2021/07/03 04:31:37;;;;;;;4.35;3.75;;;;;;;18.09;78.25;99531.69;126497;1088;114459;-79
2021/07/03 04:34:26;;;;;;;3.93;3.53;;;;;;;18.12;78.07;99528.81;126662;1090;102868;-79
2021/07/03 04:37:13;;;;;;;4.50;4.00;;;;;;;18.14;78.35;99531.37;126624;1088;103493;-79
2021/07/03 04:40:03;;;;;;;5.10;4.60;;;;;;;18.14;78.38;99543.72;126529;1088;113961;-79
2021/07/03 04:42:50;;;;;;;4.10;3.63;;;;;;;18.12;78.25;99547.28;126600;1090;102849;-79
2021/07/03 04:45:42;;;;;;;5.63;4.60;;;;;;;18.13;78.25;99542.84;126611;1089;114098;-79
2021/07/03 04:48:30;;;;;;;4.90;4.20;;;;;;;18.12;78.33;99544.64;126603;1090;102762;-79
2021/07/03 04:51:23;;;;;;;4.90;4.40;;;;;;;18.16;78.24;99540.01;126557;1090;114445;-79
2021/07/03 04:54:10;;;;;;;5.50;4.90;;;;;;;18.20;78.55;99540.61;126569;1090;101416;-80
2021/07/03 04:57:08;;;;;;;5.07;4.60;;;;;;;18.22;78.43;99538.70;126509;1090;114307;-79
2021/07/03 04:59:55;;;;;;;4.47;4.07;;;;;;;18.27;78.56;99539.19;126554;1090;102782;-79
2021/07/03 05:02:43;;;;;;;7.63;3.77;;;;;;;18.29;78.06;99539.91;126526;1090;114150;-79
2021/07/03 05:05:30;;;;;;;;;;;;;;;18.32;77.99;99531.78;126768;1089;103031;-80
2021/07/03 05:08:18;;;;;;;4.73;4.07;;;;;;;18.33;77.77;99525.55;126535;1090;103090;-80
2021/07/03 05:11:07;;;;;;;5.53;4.10;;;;;;;18.34;77.67;99524.59;126550;1090;102964;-79
2021/07/03 05:13:55;;;;;;;4.97;4.47;;;;;;;18.33;77.86;99533.47;126530;1090;114475;-79
2021/07/03 05:16:43;;;;;;;4.30;3.73;;;;;;;18.32;77.84;99532.63;126593;1090;102850;-79
2021/07/03 05:19:30;;;;;;;5.23;3.73;;;;;;;18.33;78.12;99530.83;126655;1088;103010;-79
2021/07/03 05:22:18;;;;;;;5.60;3.87;;;;;;;18.33;77.83;99533.47;126644;1090;114150;-79
2021/07/03 05:25:08;;;;;;;4.20;3.63;;;;;;;18.33;77.77;99536.11;126831;1090;101874;-79
2021/07/03 05:27:56;;;;;;;3.47;3.17;;;;;;;18.34;77.82;99537.78;126477;1090;114314;-79
2021/07/03 05:30:44;;;;;;;6.53;3.33;;;;;;;18.35;77.56;99531.55;126655;1089;102992;-79
2021/07/03 05:33:32;;;;;;;4.27;3.77;;;;;;;18.34;77.57;99535.98;126600;1089;113017;-79
2021/07/03 05:36:20;;;;;;;3.93;3.33;;;;;;;18.34;77.72;99538.63;126634;1090;102871;-79
2021/07/03 05:39:08;;;;;;;6.37;5.20;;;;;;;18.34;77.63;99550.98;126520;1090;114540;-79
2021/07/03 05:41:56;;;;;;;4.20;3.77;;;;;;;18.33;77.72;99546.67;126514;1090;103004;-79
2021/07/03 05:44:44;;;;;;;4.27;3.53;;;;;;;18.32;77.97;99539.70;126461;1090;114349;-78
2021/07/03 05:47:32;;;;;;;5.47;4.07;;;;;;;18.33;77.92;99550.14;126605;1090;102931;-79
2021/07/03 05:50:22;;;;;;;4.20;3.80;;;;;;;18.35;78.15;99548.23;126609;1090;113177;-79
2021/07/03 05:53:11;;;;;;;3.87;3.33;;;;;;;18.36;77.88;99546.43;126716;1090;103036;-79
2021/07/03 05:55:59;;;;;;;4.70;3.80;;;;;;;18.39;77.96;99554.95;126586;1090;102959;-79
2021/07/03 05:58:47;;;;;;;4.10;3.70;;;;;;;18.37;77.95;99551.59;126632;1088;102719;-79
2021/07/03 06:01:34;;;;;;;4.70;3.20;;;;;;;18.38;78.01;99549.79;126682;1090;102904;-79
2021/07/03 06:04:22;;;;;;;4.50;3.40;;;;;;;18.39;78.07;99554.95;126519;1090;114325;-79
2021/07/03 06:07:11;;;;;;;5.00;3.80;;;;;;;18.46;78.27;99550.04;126634;1090;102912;-79
2021/07/03 06:09:59;;;;;;;4.00;3.60;;;;;;;18.52;78.08;99552.23;126549;1090;114480;-79
2021/07/03 06:12:46;;;;;;;6.20;4.30;;;;;;;18.58;77.81;99553.56;126627;1089;102854;-79
2021/07/03 06:15:34;;;;;;;4.83;3.90;;;;;;;18.58;77.83;99564.97;126455;1090;114543;-79
2021/07/03 06:18:22;;;;;;;6.60;5.70;;;;;;;18.59;77.93;99566.64;126629;1090;102863;-79
2021/07/03 06:21:10;;;;;;;4.83;4.07;;;;;;;18.63;77.70;99559.36;126520;1090;114455;-79
2021/07/03 06:23:58;;;;;;;5.07;4.43;;;;;;;18.67;77.77;99568.72;126623;1089;102894;-79
2021/07/03 06:26:46;;;;;;;9.40;6.73;;;;;;;18.66;77.49;99578.45;126639;1090;114336;-81
2021/07/03 06:29:35;;;;;;;7.70;6.07;;;;;;;18.68;77.67;99576.55;126675;1090;103213;-79
2021/07/03 06:32:23;;;;;;;5.57;5.07;;;;;;;18.72;77.91;99577.16;126589;1089;102985;-79
2021/07/03 06:35:13;;;;;;;6.27;4.57;;;;;;;18.81;77.77;99576.44;126678;1090;102884;-80
2021/07/03 06:38:03;;;;;;;7.97;5.00;;;;;;;18.87;78.46;99580.44;126549;1089;102964;-79
2021/07/03 06:40:51;;;;;;;5.43;4.63;;;;;;;18.93;77.53;99580.79;126527;1090;113063;-79
2021/07/03 06:43:39;;;;;;;6.67;5.10;;;;;;;18.96;77.59;99577.91;126689;1088;103004;-79
2021/07/03 06:46:28;;;;;;;7.70;5.43;;;;;;;19.01;77.29;99582.83;126515;1089;114297;-79
2021/07/03 06:49:17;;;;;;;6.83;5.20;;;;;;;19.02;77.57;99581.86;126651;1090;102294;-79
2021/07/03 06:52:07;;;;;;;6.87;5.40;;;;;;;19.04;77.40;99587.06;126525;1090;114444;-79
2021/07/03 06:54:55;;;;;;;6.20;4.80;;;;;;;19.09;77.51;99583.09;126644;1089;103042;-79
2021/07/03 06:57:42;;;;;;;;;;;;;;;19.14;77.24;99586.20;126587;1089;113015;-79
2021/07/03 07:00:31;;;;;;;5.80;5.20;;;;;;;19.14;77.40;99588.84;126611;1089;100527;-79
2021/07/03 07:03:19;;;;;;;8.17;5.97;;;;;;;19.15;77.60;99579.95;126541;1089;114473;-79
2021/07/03 07:06:06;;;;;;;8.97;5.50;;;;;;;19.10;77.14;99587.41;126643;1090;102837;-79
2021/07/03 07:08:53;;;;;;;7.03;5.60;;;;;;;19.08;77.19;99588.50;126568;1090;114473;-79
2021/07/03 07:11:42;;;;;;;6.03;5.47;;;;;;;19.09;77.21;99588.38;126658;1090;102881;-79
2021/07/03 07:14:30;;;;;;;6.17;5.57;;;;;;;19.07;77.28;99602.67;126685;1090;102859;-79
2021/07/03 07:17:18;;;;;;;8.90;6.57;;;;;;;19.11;77.52;99591.73;126557;1088;114227;-79
2021/07/03 07:20:07;;;;;;;6.73;5.93;;;;;;;19.12;78.01;99595.22;126741;1089;103399;-79
2021/07/03 07:22:55;;;;;;;8.00;6.33;;;;;;;19.13;77.53;99592.45;126557;1089;114151;-79
2021/07/03 07:25:43;;;;;;;7.63;6.60;;;;;;;19.19;77.49;99591.97;126720;1089;102949;-79
2021/07/03 07:28:31;;;;;;;8.90;6.47;;;;;;;19.25;77.52;99590.67;126710;1089;114120;-79
2021/07/03 07:31:20;;;;;;;8.10;7.03;;;;;;;19.28;77.17;99591.27;126785;1090;102899;-79
2021/07/03 07:34:08;;;;;;;8.30;6.73;;;;;;;19.30;77.52;99589.34;126477;1090;114243;-79
2021/07/03 07:36:57;;;;;;;8.23;7.07;;;;;;;19.34;77.04;99592.58;126650;1090;102880;-79
2021/07/03 07:39:44;;;;;;;6.87;6.17;;;;;;;19.37;77.23;99594.97;126476;1090;114365;-80
2021/07/03 07:42:32;;;;;;;7.10;6.40;;;;;;;19.43;77.09;99589.22;126614;1090;103001;-79
2021/07/03 07:45:20;;;;;;;8.67;6.53;;;;;;;19.48;77.08;99586.20;126523;1090;114272;-79
2021/07/03 07:48:08;;;;;;;8.80;7.63;;;;;;;19.55;76.95;99582.97;126628;1088;103003;-79
2021/07/03 07:50:57;;;;;;;8.20;7.40;;;;;;;19.64;76.72;99591.98;126606;1089;114581;-79
2021/07/03 07:53:46;;;;;;;8.97;6.60;;;;;;;19.67;76.21;99589.09;126606;1089;102913;-80
2021/07/03 07:56:34;;;;;;;10.00;7.80;;;;;;;19.75;76.93;99583.17;126644;1088;102943;-80
2021/07/03 07:59:21;;;;;;;8.17;6.47;;;;;;;19.81;76.30;99588.83;126537;1090;114427;-80
2021/07/03 08:02:08;;;;;;;7.63;6.93;;;;;;;19.87;76.27;99588.33;126578;1090;102947;-80
2021/07/03 08:04:56;;;;;;;;;;;;;;;19.90;76.41;99588.07;126522;1090;114257;-80
2021/07/03 08:07:45;;;;;;;7.73;6.93;;;;;;;19.92;75.89;99588.78;126756;1090;103033;-80
2021/07/03 08:10:34;;;;;;;10.17;8.37;;;;;;;19.95;76.20;99600.11;126624;1089;114461;-80
2021/07/03 08:13:22;;;;;;;9.27;8.27;;;;;;;19.99;75.86;99590.95;126631;1090;102874;-80
2021/07/03 08:16:11;;;;;;;8.23;7.43;;;;;;;20.05;75.60;99590.44;126594;1090;114325;-80
2021/07/03 08:18:59;;;;;;;8.15;7.35;;;;;;;20.08;75.57;99595.48;126597;1090;102958;-80
2021/07/03 08:21:47;;;;;;;8.93;7.03;;;;;;;20.15;75.82;99597.52;126474;1090;114450;-80
2021/07/03 08:24:34;;;;;;;8.33;7.50;;;;;;;20.21;75.27;99594.35;126603;1090;102843;-80
2021/07/03 08:27:22;;;;;;;8.40;7.57;;;;;;;20.28;75.32;99591.19;126548;1089;114487;-80
2021/07/03 08:30:11;;;;;;;8.40;7.57;;;;;;;20.33;75.17;99597.81;126623;1090;103037;-80
2021/07/03 08:33:00;;;;;;;7.67;6.77;;;;;;;20.35;75.30;99597.67;126552;1089;114153;-80
2021/07/03 08:35:48;;;;;;;9.43;7.83;;;;;;;20.41;75.06;99595.38;126683;1090;102883;-80
2021/07/03 08:38:39;;;;;;;8.87;8.00;;;;;;;20.50;74.57;99599.92;126648;1088;102870;-80
2021/07/03 08:41:31;;;;;;;8.40;7.60;;;;;;;20.51;74.64;99609.55;126476;1090;114159;-80
2021/07/03 08:44:19;;;;;;;12.30;9.33;;;;;;;20.53;75.11;99600.64;126577;1090;103284;-79
2021/07/03 08:47:09;;;;;;;9.25;7.75;;;;;;;20.56;74.56;99600.38;126512;1090;114558;-79
2021/07/03 08:50:00;;;;;;;8.43;7.63;;;;;;;20.49;74.12;99611.49;126577;1090;103045;-79
2021/07/03 08:52:48;;;;;;;8.10;7.30;;;;;;;20.53;74.35;99616.53;126588;1089;114266;-79
2021/07/03 08:55:37;;;;;;;8.53;7.70;;;;;;;20.59;74.39;99616.01;126579;1090;102961;-79
2021/07/03 08:58:24;;;;;;;9.87;7.03;;;;;;;20.62;74.33;99610.45;126485;1090;114291;-79
2021/07/03 09:01:12;;;;;;;;;;;;;;;20.63;74.19;99622.73;126646;1090;102919;-79
2021/07/03 09:04:00;;;;;;;;;;;;;;;20.67;74.27;99626.83;126512;1090;103904;-80
2021/07/03 09:06:48;;;;;;;8.53;7.73;;;;;;;20.69;73.91;99628.38;126636;1089;101971;-80
2021/07/03 09:09:36;;;;;;;9.67;8.00;;;;;;;20.70;74.22;99618.61;126474;1089;114529;-80
2021/07/03 09:12:37;;;;;;;8.37;7.57;;;;;;;20.75;73.77;99621.70;126663;1089;102908;-80
2021/07/03 09:15:28;;;;;;;8.75;7.90;;;;;;;20.84;73.39;99620.95;126538;1088;114517;-80
2021/07/03 09:18:16;;;;;;;8.93;7.30;;;;;;;20.89;73.28;99624.04;126687;1089;101761;-80
2021/07/03 09:21:06;;;;;;;8.90;7.90;;;;;;;20.94;73.46;99621.83;126518;1088;114245;-80
2021/07/03 09:23:54;;;;;;;8.70;7.77;;;;;;;21.03;72.91;99610.45;126632;1089;102868;-80
2021/07/03 09:26:41;;;;;;;7.93;7.07;;;;;;;21.31;73.15;99622.20;126626;1090;104987;-80
2021/07/03 09:29:29;;;;;;;11.73;8.03;;;;;;;21.76;72.48;99618.33;126568;1089;112991;-80
2021/07/03 09:32:18;;;;;;;8.80;7.90;;;;;;;22.00;71.73;99616.13;126701;1089;102843;-80
2021/07/03 09:35:09;;;;;;;8.50;7.70;;;;;;;22.26;71.22;99614.67;126574;1090;113201;-80
2021/07/03 09:38:08;;;;;;;7.83;7.03;;;;;;;22.67;70.74;99609.20;126533;1088;114349;-80
2021/07/03 09:41:28;;;;;;;7.50;6.80;;;;;;;23.18;69.79;99598.20;126638;1090;103419;-80
2021/07/03 09:44:16;;;;;;;8.43;7.63;;;;;;;23.80;68.42;99601.98;126690;1090;114350;-80
2021/07/03 09:47:04;;;;;;;7.40;6.23;;;;;;;24.23;66.95;99597.75;126767;1090;103750;-80
2021/07/03 09:50:14;;;;;;;7.00;6.40;;;;;;;24.57;66.50;99598.75;126511;1090;113170;-80
2021/07/03 09:53:03;;;;;;;7.73;6.80;;;;;;;24.78;65.49;99597.60;126676;1089;102270;-80
2021/07/03 09:55:51;;;;;;;6.73;6.13;;;;;;;25.05;64.66;99592.13;126530;1088;114281;-80
2021/07/03 09:58:44;;;;;;;6.73;5.70;;;;;;;25.24;63.92;99594.57;126558;1090;102914;-80
2021/07/03 10:01:32;;;;;;;8.60;7.03;;;;;;;25.42;63.26;99601.66;126789;1088;113550;-80
2021/07/03 10:04:21;;;;;;;7.97;6.70;;;;;;;25.57;62.76;99597.39;126673;1089;102878;-80
2021/07/03 10:07:22;;;;;;;6.17;5.53;;;;;;;25.67;61.92;99592.73;126544;1090;114433;-80
2021/07/03 10:10:20;;;;;;;6.47;5.87;;;;;;;25.74;62.07;99593.81;126699;1090;103018;-80
2021/07/03 10:13:16;;;;;;;7.90;5.60;;;;;;;25.92;61.89;99598.20;126666;1090;114269;-80
2021/07/03 10:16:07;;;;;;;7.53;6.83;;;;;;;25.91;60.82;99578.67;126746;1089;102850;-80
2021/07/03 10:19:14;;;;;;;7.10;6.50;;;;;;;25.88;60.40;99577.16;126741;1090;103225;-80
2021/07/03 10:22:25;;;;;;;9.33;6.47;;;;;;;25.82;60.28;99575.13;126740;1090;102889;-80
2021/07/03 10:25:16;;;;;;;7.13;6.43;;;;;;;25.77;59.75;99566.78;126594;1090;102897;-80
2021/07/03 10:28:07;;;;;;;7.00;6.40;;;;;;;25.85;60.08;99571.28;126554;1090;113273;-79
2021/07/03 10:31:07;;;;;;;7.23;6.53;;;;;;;25.88;60.11;99574.49;126720;1090;102990;-79
2021/07/03 10:33:56;;;;;;;7.67;5.93;;;;;;;25.90;59.63;99560.97;126693;1090;114417;-80
2021/07/03 10:36:44;;;;;;;6.80;6.10;;;;;;;25.82;59.59;99572.45;126696;1090;102962;-80
2021/07/03 10:39:35;;;;;;;7.57;6.87;;;;;;;25.71;59.44;99567.44;126623;1090;114158;-80
2021/07/03 10:42:31;;;;;;;8.13;6.43;;;;;;;25.64;59.67;99554.84;126734;1089;102920;-80
2021/07/03 10:45:23;;;;;;;8.50;7.70;;;;;;;25.51;59.19;99556.16;126557;1090;114461;-80
2021/07/03 10:48:16;;;;;;;9.40;6.90;;;;;;;25.32;59.67;99563.59;126701;1090;102951;-80
2021/07/03 10:51:10;;;;;;;7.93;7.13;;;;;;;25.19;59.84;99556.02;126495;1089;114479;-79
2021/07/03 10:54:19;;;;;;;9.43;7.63;;;;;;;25.02;60.10;99560.44;126632;1090;102927;-79
2021/07/03 10:57:09;;;;;;;10.67;8.10;;;;;;;25.01;60.22;99564.09;126693;1089;114147;-79
2021/07/03 11:00:04;;;;;;;9.17;7.67;;;;;;;24.99;60.19;99568.73;126625;1090;102986;-80
2021/07/03 11:02:52;;;;;;;11.48;7.60;;;;;;;24.89;59.62;99565.31;126600;1088;114270;-79
2021/07/03 11:05:40;;;;;;;9.20;7.93;;;;;;;24.86;59.85;99560.30;126762;1089;100623;-80
2021/07/03 11:08:44;;;;;;;8.97;7.60;;;;;;;24.82;60.26;99564.28;126603;1090;113194;-79
2021/07/03 11:11:39;;;;;;;9.47;8.23;;;;;;;24.70;60.08;99564.53;126676;1090;102914;-80
2021/07/03 11:14:27;;;;;;;10.17;7.67;;;;;;;24.60;60.56;99566.48;126589;1090;114363;-80
2021/07/03 11:17:19;;;;;;;8.43;7.43;;;;;;;24.56;60.67;99559.76;126666;1090;102853;-80
2021/07/03 11:20:10;;;;;;;9.67;7.23;;;;;;;24.61;60.77;99557.48;126599;1090;114489;-80
2021/07/03 11:22:59;;;;;;;8.20;6.90;;;;;;;24.68;61.13;99553.19;126664;1090;102865;-79
2021/07/03 11:25:50;;;;;;;9.73;6.80;;;;;;;24.82;60.74;99548.28;126612;1090;114462;-80
2021/07/03 11:28:39;;;;;;;7.10;6.40;;;;;;;24.82;60.43;99553.62;126625;1088;103012;-80
2021/07/03 11:31:27;;;;;;;8.97;7.10;;;;;;;24.82;60.36;99553.62;126590;1090;100433;-80
2021/07/03 11:34:19;;;;;;;7.87;7.17;;;;;;;24.86;60.78;99549.63;126498;1089;114166;-79
2021/07/03 11:37:06;;;;;;;7.10;6.40;;;;;;;24.93;60.52;99550.66;126645;1089;103201;-79
2021/07/03 11:39:56;;;;;;;7.57;6.80;;;;;;;24.97;60.31;99549.38;126538;1089;114876;-80
2021/07/03 11:42:47;;;;;;;9.87;6.97;;;;;;;25.06;60.20;99551.11;126620;1090;102887;-79
2021/07/03 11:45:37;;;;;;;7.67;6.90;;;;;;;25.11;60.01;99556.80;126530;1089;114303;-80
2021/07/03 11:48:27;;;;;;;6.90;6.20;;;;;;;25.07;59.88;99552.78;126718;1089;102877;-80
2021/07/03 11:51:15;;;;;;;7.40;6.70;;;;;;;25.09;59.60;99548.13;126596;1090;113137;-80
2021/07/03 11:54:04;;;;;;;8.10;7.20;;;;;;;25.13;59.83;99551.30;126618;1090;102846;-80
2021/07/03 11:56:58;;;;;;;8.53;7.00;;;;;;;25.21;59.51;99552.20;126582;1088;114367;-80
2021/07/03 11:59:46;;;;;;;7.47;6.67;;;;;;;25.29;59.33;99557.55;126632;1090;103090;-80
2021/07/03 12:02:36;;;;;;;8.87;6.77;;;;;;;25.35;59.13;99560.59;126578;1089;114245;-80
2021/07/03 12:05:33;;;;;;;9.40;7.50;;;;;;;25.41;59.19;99566.13;126668;1090;103032;-80
2021/07/03 12:08:29;;;;;;;7.68;6.98;;;;;;;25.44;59.36;99554.28;126491;1090;114391;-80
2021/07/03 12:11:22;;;;;;;8.87;7.97;;;;;;;25.42;58.54;99550.94;126661;1090;102946;-80
2021/07/03 12:14:13;;;;;;;10.13;8.07;;;;;;;25.40;58.63;99560.95;126677;1089;114714;-80
2021/07/03 12:17:02;;;;;;;7.33;6.40;;;;;;;25.44;58.34;99562.29;126634;1089;102843;-80
2021/07/03 12:20:01;;;;;;;7.47;6.53;;;;;;;25.40;58.16;99550.27;126595;1088;102868;-80
2021/07/03 12:22:55;;;;;;;7.70;6.57;;;;;;;25.30;58.34;99548.55;126801;1087;102847;-80
2021/07/03 12:25:50;;;;;;;7.37;6.60;;;;;;;25.22;58.66;99542.35;126875;1089;102850;-80
2021/07/03 12:29:12;;;;;;;8.10;7.30;;;;;;;25.17;58.45;99536.67;126626;1088;114173;-80
2021/07/03 12:32:08;;;;;;;10.53;6.80;;;;;;;25.12;58.45;99544.30;126652;1090;102852;-80
2021/07/03 12:34:56;;;;;;;8.27;6.37;;;;;;;25.13;58.61;99536.13;126585;1089;114128;-80
2021/07/03 12:37:44;;;;;;;8.93;7.50;;;;;;;25.18;58.56;99538.34;126722;1090;102884;-79
2021/07/03 12:40:40;;;;;;;9.33;7.10;;;;;;;25.28;58.28;99531.86;126534;1090;114471;-79
2021/07/03 12:43:32;;;;;;;7.37;6.57;;;;;;;25.41;58.12;99528.75;126667;1090;102948;-79
2021/07/03 12:46:29;;;;;;;7.13;6.43;;;;;;;25.48;57.83;99524.42;126628;1088;113166;-80
2021/07/03 12:49:17;;;;;;;6.33;5.73;;;;;;;25.48;58.17;99528.92;126802;1089;102984;-79
2021/07/03 12:52:08;;;;;;;7.13;6.40;;;;;;;25.56;57.64;99523.63;126518;1089;113317;-79
2021/07/03 12:54:57;;;;;;;7.07;6.13;;;;;;;25.65;56.90;99525.30;126653;1090;102852;-80
2021/07/03 12:57:47;;;;;;;8.67;6.67;;;;;;;25.59;57.05;99528.64;126712;1088;114087;-80
2021/07/03 13:00:47;;;;;;;8.57;6.50;;;;;;;25.50;56.69;99525.13;126674;1090;102870;-80
2021/07/03 13:03:35;;;;;;;9.25;6.23;;;;;;;25.35;56.98;99523.23;126484;1090;113055;-79